Buckhannon, West Virginia
Current Conditions -  °F | °C
As of 10:55 AM on Friday 28 Nov 2014 (Local Time) from KW22 Reporting Station
Overcast Overcast  
Wind Chill: 17°   Ceiling: 3400
Heat Index: 25°   Visibility: 10mi
Dew Point: 18°   Wind: 7mph
Humidity: 74%   Direction: NA
Pressure: 30.31"   Gusts: NA
Location:  38.99°N, 80.23°W
Report Text: KW22 281555Z AUTO VRB06KT 10SM OVC034 M04/M08 A3031 RMK AO2
Loading
Personal Weather Stations






























Interactive Weather Map New forecast layout! Learn more

10-Day Weather Forecast

Advertisements
Track Severe Weather on mobile